createdAt,value
2018-05-03T00:01:47.475Z,103883.04
2018-05-03T00:04:15.007Z,103884.05
2018-05-03T00:06:42.533Z,103883.04
2018-05-03T00:09:10.158Z,103926.75
2018-05-03T00:11:37.734Z,103919.63
2018-05-03T00:14:05.329Z,103886.09
2018-05-03T00:16:32.854Z,103903.37
2018-05-03T00:19:00.443Z,103934.87
2018-05-03T00:21:27.989Z,103921.66
2018-05-03T00:23:55.516Z,103940.98
2018-05-03T00:26:23.092Z,103923.70
2018-05-03T00:28:50.614Z,103982.66
2018-05-03T00:31:18.147Z,103966.39
2018-05-03T00:33:45.705Z,103972.48
2018-05-03T00:36:13.225Z,103961.31
2018-05-03T00:38:40.789Z,103986.72
2018-05-03T00:41:08.314Z,103937.93
2018-05-03T00:43:35.833Z,103951.14
2018-05-03T00:46:03.386Z,103990.78
2018-05-03T00:48:31.328Z,104021.28
2018-05-03T00:50:58.845Z,104011.11
2018-05-03T00:53:26.366Z,104052.78
2018-05-03T00:55:54.222Z,104059.91
2018-05-03T00:58:21.737Z,104049.73
2018-05-03T01:00:49.257Z,104087.34
2018-05-03T01:03:16.967Z,104070.06
2018-05-03T01:05:44.498Z,104074.14
2018-05-03T01:08:12.014Z,104047.70
2018-05-03T01:10:39.555Z,104081.25
2018-05-03T01:13:07.077Z,104067.02
2018-05-03T01:15:34.825Z,104034.49
2018-05-03T01:18:02.370Z,104030.42
2018-05-03T01:20:29.897Z,104050.75
2018-05-03T01:22:57.461Z,104089.38
2018-05-03T01:25:24.977Z,104082.27
2018-05-03T01:27:52.496Z,104116.83
2018-05-03T01:30:20.166Z,104186.97
2018-05-03T01:32:47.694Z,104218.48
2018-05-03T01:35:27.153Z,104211.36
2018-05-03T01:37:54.683Z,104273.38
2018-05-03T01:40:22.215Z,104322.16
2018-05-03T01:42:49.778Z,104350.62
2018-05-03T01:45:17.316Z,104381.12
2018-05-03T01:47:44.881Z,104385.19
2018-05-03T01:50:12.407Z,104418.73
2018-05-03T01:52:39.942Z,104485.83
2018-05-03T01:55:07.481Z,104473.63
2018-05-03T01:57:35.047Z,104522.43
2018-05-03T02:00:02.566Z,104571.23
2018-05-03T02:02:30.090Z,104573.27
2018-05-03T02:04:57.649Z,104636.29
2018-05-03T02:07:25.205Z,104671.88
2018-05-03T02:09:52.784Z,104704.41
2018-05-03T02:12:20.315Z,104729.83
2018-05-03T02:14:48.288Z,104747.11
2018-05-03T02:17:15.823Z,104739.99
2018-05-03T02:19:43.357Z,104783.70
2018-05-03T02:22:10.969Z,104780.66
2018-05-03T02:24:38.486Z,104831.49
2018-05-03T02:27:06.019Z,104838.61
2018-05-03T02:29:33.567Z,104875.21
2018-05-03T02:32:01.125Z,104889.45
2018-05-03T02:34:28.647Z,104907.75
2018-05-03T02:36:56.539Z,104950.45
2018-05-03T02:39:24.062Z,104938.25
2018-05-03T02:41:51.596Z,104981.97
2018-05-03T02:44:19.164Z,105039.92
2018-05-03T02:46:46.691Z,105041.95
2018-05-03T02:49:14.252Z,105047.04
2018-05-03T02:51:41.781Z,105070.42
2018-05-03T02:54:09.336Z,105075.51
2018-05-03T02:56:36.899Z,105094.83
2018-05-03T02:59:16.346Z,105106.02
2018-05-03T03:01:54.487Z,105115.16
2018-05-03T03:04:39.642Z,105163.97
2018-05-03T03:10:50.431Z,105142.62
2018-05-03T03:16:53.343Z,105172.10
2018-05-03T03:19:32.651Z,105214.81
2018-05-03T03:22:17.819Z,105225.99
2018-05-03T03:28:06.958Z,105330.73
2018-05-03T03:34:23.357Z,105327.67
2018-05-03T03:37:26.562Z,105369.37
2018-05-03T03:40:11.741Z,105338.86
2018-05-03T03:45:49.577Z,105381.57
2018-05-03T03:48:17.575Z,105417.16
2018-05-03T03:50:45.116Z,105381.57
2018-05-03T03:53:12.694Z,105387.67
2018-05-03T03:55:40.265Z,105374.45
2018-05-03T03:58:07.788Z,105424.28
2018-05-03T04:00:35.310Z,105511.73
2018-05-03T04:03:02.870Z,105518.85
2018-05-03T04:05:30.595Z,105529.02
2018-05-03T04:07:58.128Z,105505.62
2018-05-03T04:10:25.654Z,105496.48
2018-05-03T04:12:53.203Z,105523.94
2018-05-03T04:15:20.900Z,105567.66
2018-05-03T04:18:00.269Z,105592.06
2018-05-03T04:20:46.529Z,105560.55
2018-05-03T04:26:18.984Z,105563.59
2018-05-03T04:28:46.510Z,105563.59
2018-05-03T04:31:14.036Z,105560.55
2018-05-03T04:33:41.588Z,105564.61
2018-05-03T04:36:09.140Z,105560.55
2018-05-03T04:38:36.710Z,105625.63
2018-05-03T04:41:04.243Z,105511.73
2018-05-03T04:43:31.768Z,105522.92
2018-05-03T04:45:59.314Z,105507.66
2018-05-03T04:48:26.852Z,105521.90
2018-05-03T04:50:54.605Z,105534.10
2018-05-03T04:53:22.141Z,105540.20
2018-05-03T04:55:49.666Z,105532.07
2018-05-03T04:58:17.427Z,105504.61
2018-05-03T05:00:44.951Z,105488.34
2018-05-03T05:03:12.483Z,105474.11
2018-05-03T05:05:40.471Z,105451.73
2018-05-03T05:08:07.994Z,105430.38
2018-05-03T05:10:35.577Z,105383.60
2018-05-03T05:13:03.111Z,105320.56
2018-05-03T05:15:30.673Z,105299.20
2018-05-03T05:17:58.219Z,105197.52
2018-05-03T05:20:25.777Z,105237.18
2018-05-03T05:22:53.308Z,105196.51
2018-05-03T05:25:20.832Z,105194.47
2018-05-03T05:27:48.517Z,105178.20
2018-05-03T05:30:16.051Z,105086.69
2018-05-03T05:32:43.579Z,104894.53
2018-05-03T05:35:11.136Z,104931.13
2018-05-03T05:37:38.658Z,104798.95
2018-05-03T05:40:06.218Z,104591.56
2018-05-03T05:42:33.751Z,104430.94
2018-05-03T05:45:01.308Z,104634.26
2018-05-03T05:47:28.851Z,104634.26
2018-05-03T05:49:56.409Z,104337.41
2018-05-03T05:52:23.935Z,104620.02
2018-05-03T05:54:51.500Z,104695.26
2018-05-03T05:57:19.058Z,104673.91
2018-05-03T05:59:46.575Z,104690.17
2018-05-03T06:02:14.111Z,104768.45
2018-05-03T06:04:41.652Z,104764.39
2018-05-03T06:07:09.207Z,104636.29
2018-05-03T06:09:36.735Z,104638.33
2018-05-03T06:12:04.296Z,104744.06
2018-05-03T06:14:31.871Z,104700.34
2018-05-03T06:16:59.390Z,104615.96
2018-05-03T06:19:26.914Z,104452.28
2018-05-03T06:21:54.470Z,104540.73
2018-05-03T06:24:22.024Z,104457.37
2018-05-03T06:26:49.590Z,104487.87
2018-05-03T06:29:17.118Z,104571.23
2018-05-03T06:31:44.693Z,104502.09
2018-05-03T06:34:12.226Z,104322.16
2018-05-03T06:36:39.756Z,104421.78
2018-05-03T06:39:07.388Z,104436.02
2018-05-03T06:41:34.916Z,104255.07
2018-05-03T06:44:02.457Z,104042.63
2018-05-03T06:46:30.026Z,104031.44
2018-05-03T06:48:57.551Z,104079.22
2018-05-03T06:51:25.211Z,104121.91
2018-05-03T06:53:52.701Z,104110.73
2018-05-03T06:56:20.232Z,104327.24
2018-05-03T06:58:47.836Z,104383.16
2018-05-03T07:01:15.356Z,104133.09
2018-05-03T07:03:42.891Z,104268.28
2018-05-03T07:06:10.840Z,104267.27
2018-05-03T07:08:38.375Z,104077.19
2018-05-03T07:11:05.900Z,104001.96
2018-05-03T07:13:33.488Z,104120.89
2018-05-03T07:16:01.045Z,104236.77
2018-05-03T07:18:28.584Z,104089.38
2018-05-03T07:20:56.143Z,104069.05
2018-05-03T07:23:23.667Z,103991.80
2018-05-03T07:25:51.219Z,104043.64
2018-05-03T07:28:18.742Z,103954.19
2018-05-03T07:30:46.351Z,103834.25
2018-05-03T07:33:13.888Z,103809.86
2018-05-03T07:35:41.419Z,103835.27
2018-05-03T07:38:09.026Z,103834.25
2018-05-03T07:40:36.554Z,103965.37
2018-05-03T07:43:04.115Z,103816.97
2018-05-03T07:45:31.690Z,103802.74
2018-05-03T07:47:59.211Z,103690.94
2018-05-03T07:50:26.747Z,103708.22
2018-05-03T07:52:54.298Z,103668.58
2018-05-03T07:55:21.843Z,103679.77
2018-05-03T07:57:49.380Z,103676.71
2018-05-03T08:00:16.939Z,103812.91
2018-05-03T08:02:44.476Z,103718.38
2018-05-03T08:05:12.051Z,103677.73
2018-05-03T08:07:39.567Z,103828.16
2018-05-03T08:10:07.114Z,103570.00
2018-05-03T08:12:34.707Z,103542.55
2018-05-03T08:15:02.252Z,103555.77
2018-05-03T08:17:29.829Z,103656.39
2018-05-03T08:19:57.369Z,103497.84
2018-05-03T08:22:24.955Z,103577.11
2018-05-03T08:24:52.502Z,103710.25
2018-05-03T08:27:20.027Z,103619.80
2018-05-03T08:29:47.555Z,103526.30
2018-05-03T08:32:15.143Z,103600.48
2018-05-03T08:34:42.679Z,103324.05
2018-05-03T08:37:10.208Z,103367.75
2018-05-03T08:39:37.752Z,103538.49
2018-05-03T08:42:05.300Z,103478.53
2018-05-03T08:44:32.861Z,103475.48
2018-05-03T08:47:00.396Z,103586.26
2018-05-03T08:49:27.947Z,103578.13
2018-05-03T08:51:55.497Z,103499.88
2018-05-03T08:54:23.034Z,103541.54
2018-05-03T08:56:51.006Z,103371.81
2018-05-03T08:59:18.540Z,103516.12
2018-05-03T09:01:46.084Z,103482.59
2018-05-03T09:04:13.840Z,103405.35
2018-05-03T09:06:41.371Z,103371.81
2018-05-03T09:09:08.902Z,102965.33
2018-05-03T09:11:36.442Z,103036.46
2018-05-03T09:14:03.995Z,103127.92
2018-05-03T09:16:31.540Z,103322.02
2018-05-03T09:18:59.149Z,103345.39
2018-05-03T09:21:26.683Z,103106.58
2018-05-03T09:23:54.225Z,103093.37
2018-05-03T09:26:21.775Z,103373.84
2018-05-03T09:28:49.304Z,103264.09
2018-05-03T09:31:16.866Z,103197.02
2018-05-03T09:33:44.555Z,103218.36
2018-05-03T09:36:12.498Z,102896.23
2018-05-03T09:38:40.023Z,103201.09
2018-05-03T09:41:07.548Z,103014.11
2018-05-03T09:43:35.094Z,103416.53
2018-05-03T09:46:02.623Z,103246.81
2018-05-03T09:48:30.195Z,103412.47
2018-05-03T09:50:57.724Z,103473.45
2018-05-03T09:53:25.243Z,103365.72
2018-05-03T09:55:52.815Z,103112.67
2018-05-03T09:58:20.345Z,103026.30
2018-05-03T10:00:47.903Z,102583.28
2018-05-03T10:03:15.471Z,102895.22
2018-05-03T10:05:43.001Z,102559.91
2018-05-03T10:08:10.527Z,102659.48
2018-05-03T10:10:38.082Z,102433.92
2018-05-03T10:13:05.613Z,102290.67
2018-05-03T10:15:33.656Z,102445.09
2018-05-03T10:18:01.180Z,102425.80
2018-05-03T10:20:28.715Z,102589.37
2018-05-03T10:22:56.482Z,102657.45
2018-05-03T10:25:24.004Z,102782.42
2018-05-03T10:27:51.531Z,102799.70
2018-05-03T10:30:19.144Z,102904.36
2018-05-03T10:32:46.690Z,102567.02
2018-05-03T10:35:14.220Z,102442.05
2018-05-03T10:37:41.927Z,102607.66
2018-05-03T10:40:09.470Z,102591.41
2018-05-03T10:42:36.994Z,102264.25
2018-05-03T10:45:04.597Z,102191.11
2018-05-03T10:47:32.145Z,102445.09
2018-05-03T10:49:59.667Z,102528.41
2018-05-03T10:53:22.487Z,102156.56
2018-05-03T10:55:50.448Z,102207.36
2018-05-03T10:58:17.999Z,102518.25
2018-05-03T11:00:45.556Z,102573.12
2018-05-03T11:03:13.122Z,102538.57
2018-05-03T11:05:40.664Z,102024.50
2018-05-03T11:08:08.412Z,101984.88
2018-05-03T11:10:35.938Z,102045.83
2018-05-03T11:13:03.457Z,102702.16
2018-05-03T11:15:31.038Z,102635.09
2018-05-03T11:17:58.566Z,102504.02
2018-05-03T11:20:26.092Z,102492.84
2018-05-03T11:22:53.648Z,102636.11
2018-05-03T11:25:21.312Z,102420.71
2018-05-03T11:27:48.843Z,102250.03
2018-05-03T11:30:16.363Z,102200.25
2018-05-03T11:32:43.910Z,102228.70
2018-05-03T11:35:11.443Z,102331.30
2018-05-03T11:37:39.387Z,102569.05
2018-05-03T11:40:06.911Z,102442.05
2018-05-03T11:42:34.461Z,102476.59
2018-05-03T11:45:02.018Z,102580.23
2018-05-03T11:47:29.542Z,102649.32
2018-05-03T11:49:57.113Z,102736.70
2018-05-03T11:52:24.641Z,102811.89
2018-05-03T11:54:52.163Z,102829.17
2018-05-03T11:57:19.723Z,102918.59
2018-05-03T11:59:47.252Z,103091.34
2018-05-03T12:02:14.800Z,103119.79
2018-05-03T12:04:42.328Z,102900.30
2018-05-03T12:07:09.907Z,102744.83
2018-05-03T12:09:37.428Z,102768.20
2018-05-03T12:12:04.961Z,102777.34
2018-05-03T12:14:32.505Z,102471.52
2018-05-03T12:17:00.030Z,102588.36
2018-05-03T12:19:27.579Z,102443.06
2018-05-03T12:21:55.115Z,102327.24
2018-05-03T12:24:23.119Z,102581.25
2018-05-03T12:26:50.619Z,102611.73
2018-05-03T12:29:18.147Z,102819.01
2018-05-03T12:31:45.699Z,102908.42
2018-05-03T12:34:13.223Z,102872.86
2018-05-03T12:36:40.815Z,102576.16
2018-05-03T12:39:08.334Z,102425.80
2018-05-03T12:41:35.860Z,102403.44
2018-05-03T12:44:03.421Z,102309.97
2018-05-03T12:46:30.972Z,102255.11
2018-05-03T12:48:58.500Z,102335.37
2018-05-03T12:51:26.062Z,102547.72
2018-05-03T12:53:53.588Z,102810.88
2018-05-03T12:56:21.139Z,102637.13
2018-05-03T12:58:48.719Z,102574.13
2018-05-03T13:01:16.244Z,102702.16
2018-05-03T13:03:43.771Z,102824.09
2018-05-03T13:06:11.318Z,102929.77
2018-05-03T13:08:38.876Z,102897.25
2018-05-03T13:11:06.394Z,102885.05
2018-05-03T13:13:33.931Z,102936.88
2018-05-03T13:16:01.455Z,102915.54
2018-05-03T13:18:29.017Z,102672.69
2018-05-03T13:20:56.542Z,102624.94
2018-05-03T13:23:24.106Z,102595.47
2018-05-03T13:25:51.627Z,102759.05
2018-05-03T13:28:19.161Z,102982.61
2018-05-03T13:30:46.715Z,102896.23
2018-05-03T13:33:14.236Z,102747.88
2018-05-03T13:35:41.806Z,102529.42
2018-05-03T13:38:09.326Z,102458.30
2018-05-03T13:40:36.867Z,102269.34
2018-05-03T13:43:04.414Z,102405.47
2018-05-03T13:45:32.170Z,102191.11
2018-05-03T13:47:59.692Z,102129.14
2018-05-03T13:50:27.220Z,102086.47
2018-05-03T13:52:54.897Z,102307.94
2018-05-03T13:55:22.424Z,102212.44
2018-05-03T13:57:49.961Z,102381.09
2018-05-03T14:00:17.512Z,102467.45
2018-05-03T14:02:45.178Z,102450.17
2018-05-03T14:05:12.723Z,102589.37
2018-05-03T14:07:40.261Z,102616.80
2018-05-03T14:10:07.809Z,102461.35
2018-05-03T14:12:35.333Z,102399.37
2018-05-03T14:15:03.053Z,102349.59
2018-05-03T14:17:30.581Z,102524.34
2018-05-03T14:19:58.119Z,102682.85
2018-05-03T14:22:25.685Z,102586.33
2018-05-03T14:24:53.270Z,102675.73
2018-05-03T14:27:20.905Z,102630.02
2018-05-03T14:29:48.439Z,102750.93
2018-05-03T14:32:15.984Z,102719.43
2018-05-03T14:34:43.517Z,102760.07
2018-05-03T14:37:11.067Z,102809.86
2018-05-03T14:39:38.627Z,102829.17
2018-05-03T14:42:06.147Z,102841.36
2018-05-03T14:44:33.691Z,102865.75
2018-05-03T14:47:01.222Z,102869.81
2018-05-03T14:49:28.771Z,102816.97
2018-05-03T14:51:56.347Z,102718.41
2018-05-03T14:54:23.871Z,102646.27
2018-05-03T14:56:51.394Z,102715.36
2018-05-03T14:59:18.939Z,102886.07
2018-05-03T15:01:46.470Z,102816.97
2018-05-03T15:04:14.019Z,102734.67
2018-05-03T15:06:41.696Z,102766.17
2018-05-03T15:09:09.126Z,102595.47
2018-05-03T15:11:37.131Z,102554.83
2018-05-03T15:14:04.646Z,102441.03
2018-05-03T15:16:32.242Z,102427.83
2018-05-03T15:18:59.743Z,102456.27
2018-05-03T15:21:27.262Z,102602.58
2018-05-03T15:23:54.819Z,102658.47
2018-05-03T15:26:22.342Z,102772.27
2018-05-03T15:28:49.886Z,102814.94
2018-05-03T15:31:17.410Z,102779.37
2018-05-03T15:33:45.041Z,102790.56
2018-05-03T15:36:12.655Z,102826.13
2018-05-03T15:38:40.183Z,102874.89
2018-05-03T15:41:07.729Z,102889.12
2018-05-03T15:43:35.256Z,102910.45
2018-05-03T15:46:03.178Z,102907.41
2018-05-03T15:48:30.702Z,102915.54
2018-05-03T15:50:58.223Z,102932.81
2018-05-03T15:53:25.772Z,102843.39
2018-05-03T15:55:56.039Z,102923.67
2018-05-03T15:58:23.671Z,102908.42
2018-05-03T16:00:51.239Z,102920.63
2018-05-03T16:03:18.807Z,102793.61
2018-05-03T16:05:46.340Z,102902.33
2018-05-03T16:08:13.882Z,102742.80
2018-05-03T16:10:41.435Z,102569.05
2018-05-03T16:13:09.125Z,102566.00
2018-05-03T16:15:36.874Z,102638.14
2018-05-03T16:18:04.407Z,102658.47
2018-05-03T16:20:32.197Z,102656.44
2018-05-03T16:22:59.720Z,102624.94
2018-05-03T16:25:27.254Z,102616.80
2018-05-03T16:27:54.810Z,102558.89
2018-05-03T16:30:22.331Z,102584.30
2018-05-03T16:32:49.894Z,102523.33
2018-05-03T16:35:17.434Z,102545.69
2018-05-03T16:37:44.954Z,102556.86
2018-05-03T16:40:12.538Z,102655.42
2018-05-03T16:42:40.054Z,102542.64
2018-05-03T16:45:07.585Z,102467.45
2018-05-03T16:47:35.257Z,102580.23
2018-05-03T16:50:02.788Z,102724.52
2018-05-03T16:52:30.329Z,102576.16
2018-05-03T16:54:57.884Z,102583.28
2018-05-03T16:57:25.407Z,102635.09
2018-05-03T16:59:53.398Z,102556.86
2018-05-03T17:02:20.922Z,102623.92
2018-05-03T17:04:48.472Z,102591.41
2018-05-03T17:07:16.022Z,102619.85
2018-05-03T17:09:43.548Z,102560.92
2018-05-03T17:12:11.502Z,102522.31
2018-05-03T17:14:39.032Z,102662.53
2018-05-03T17:17:06.573Z,102576.16
2018-05-03T17:19:34.139Z,102682.85
2018-05-03T17:22:01.664Z,102718.41
2018-05-03T17:24:29.240Z,102646.27
2018-05-03T17:26:56.754Z,102638.14
2018-05-03T17:29:24.406Z,102682.85
2018-05-03T17:31:51.958Z,102709.27
2018-05-03T17:34:19.486Z,102777.34
2018-05-03T17:36:47.144Z,102856.60
2018-05-03T17:39:14.683Z,102770.23
2018-05-03T17:41:42.233Z,102789.55
2018-05-03T17:44:09.831Z,102848.48
2018-05-03T17:46:37.351Z,102876.92
2018-05-03T17:49:05.143Z,102886.07
2018-05-03T17:51:32.692Z,102844.41
2018-05-03T17:54:00.239Z,102872.86
2018-05-03T17:56:28.028Z,102932.81
2018-05-03T17:58:55.550Z,102939.92
2018-05-03T18:01:23.079Z,102916.56
2018-05-03T18:03:50.642Z,102906.39
2018-05-03T18:06:18.415Z,102823.07
2018-05-03T18:08:45.940Z,102633.06
2018-05-03T18:11:13.458Z,102494.88
2018-05-03T18:13:41.024Z,102409.54
2018-05-03T18:16:08.592Z,102395.31
2018-05-03T18:18:36.115Z,102385.16
2018-05-03T18:21:04.178Z,102281.52
2018-05-03T18:23:31.706Z,102450.17
2018-05-03T18:25:59.231Z,102535.52
2018-05-03T18:28:27.000Z,102830.19
2018-05-03T18:30:54.520Z,102931.80
2018-05-03T18:33:22.043Z,103019.19
2018-05-03T18:35:49.668Z,103072.03
2018-05-03T18:38:17.238Z,103143.16
2018-05-03T18:40:44.779Z,103236.66
2018-05-03T18:43:12.526Z,103284.42
2018-05-03T18:45:40.056Z,103431.78
2018-05-03T18:48:07.583Z,103410.44
2018-05-03T18:50:35.157Z,103463.28
2018-05-03T18:53:02.683Z,103581.17
2018-05-03T18:55:30.211Z,103537.47
2018-05-03T18:57:57.797Z,103664.52
2018-05-03T19:00:25.318Z,103660.45
2018-05-03T19:02:52.876Z,103696.02
2018-05-03T19:05:20.541Z,103767.17
2018-05-03T19:07:48.370Z,103759.04
2018-05-03T19:10:16.154Z,103775.30
2018-05-03T19:12:44.004Z,103828.16
2018-05-03T19:15:11.806Z,103892.19
2018-05-03T19:17:39.397Z,103976.55
2018-05-03T19:20:07.578Z,103953.17
2018-05-03T19:22:35.188Z,103972.48
2018-05-03T19:25:02.715Z,103988.75
2018-05-03T19:27:30.236Z,104009.08
2018-05-03T19:29:57.790Z,104006.03
2018-05-03T19:32:25.365Z,104051.77
2018-05-03T19:34:52.890Z,104077.19
2018-05-03T19:37:20.450Z,104124.95
2018-05-03T19:39:47.976Z,104090.40
2018-05-03T19:42:15.501Z,104147.32
2018-05-03T19:44:43.046Z,104076.17
2018-05-03T19:47:10.573Z,104234.74
2018-05-03T19:49:38.118Z,104229.66
2018-05-03T19:52:05.639Z,104212.38
2018-05-03T19:54:33.343Z,104275.41
2018-05-03T19:57:00.885Z,104230.67
2018-05-03T19:59:28.407Z,104243.89
2018-05-03T20:01:55.950Z,104261.17
2018-05-03T20:04:23.478Z,104261.17
2018-05-03T20:06:51.051Z,104345.55
2018-05-03T20:09:18.598Z,104393.32
2018-05-03T20:11:46.125Z,104382.14
2018-05-03T20:14:14.100Z,104356.73
2018-05-03T20:16:41.622Z,104416.70
2018-05-03T20:19:09.147Z,104441.10
2018-05-03T20:21:36.691Z,104424.84
2018-05-03T20:24:04.238Z,104479.73
2018-05-03T20:26:32.235Z,104451.27
2018-05-03T20:28:59.767Z,104440.08
2018-05-03T20:31:27.295Z,104461.44
2018-05-03T20:33:54.845Z,104454.31
2018-05-03T20:36:22.432Z,104521.41
2018-05-03T20:38:49.970Z,104553.95
2018-05-03T20:41:17.500Z,104572.25
2018-05-03T20:43:45.105Z,104612.91
2018-05-03T20:46:12.751Z,104729.83
2018-05-03T20:48:40.192Z,104710.51
2018-05-03T20:51:07.771Z,104686.11
2018-05-03T20:53:35.351Z,104746.09
2018-05-03T20:56:02.875Z,104738.98
2018-05-03T20:58:30.396Z,104774.56
2018-05-03T21:00:58.080Z,104808.11
2018-05-03T21:03:25.606Z,104712.55
2018-05-03T21:05:53.139Z,104762.36
2018-05-03T21:08:20.779Z,104741.01
2018-05-03T21:10:48.309Z,104756.26
2018-05-03T21:13:15.842Z,104773.54
2018-05-03T21:15:43.393Z,104837.59
2018-05-03T21:18:10.941Z,104812.17
2018-05-03T21:20:38.871Z,104762.36
2018-05-03T21:23:06.406Z,104789.81
2018-05-03T21:25:33.934Z,104811.16
2018-05-03T21:28:01.922Z,104831.49
2018-05-03T21:30:29.459Z,104925.03
2018-05-03T21:32:56.988Z,104814.20
2018-05-03T21:35:24.764Z,104806.08
2018-05-03T21:37:52.287Z,104821.33
2018-05-03T21:40:19.812Z,104861.99
2018-05-03T21:42:47.499Z,104893.52
2018-05-03T21:45:15.024Z,104871.14
2018-05-03T21:47:42.534Z,104860.98
2018-05-03T21:50:10.088Z,104931.13
2018-05-03T21:52:37.635Z,104954.52
2018-05-03T21:55:05.209Z,104966.72
2018-05-03T21:57:32.738Z,104974.84
2018-05-03T22:00:00.265Z,104960.61
2018-05-03T22:02:27.831Z,105008.41
2018-05-03T22:04:55.371Z,105014.50
2018-05-03T22:07:22.892Z,105111.09
2018-05-03T22:09:50.492Z,105058.22
2018-05-03T22:12:18.016Z,105100.92
2018-05-03T22:14:45.545Z,105074.49
2018-05-03T22:17:13.176Z,105089.74
2018-05-03T22:19:40.659Z,105120.25
2018-05-03T22:22:08.601Z,105069.41
2018-05-03T22:24:36.139Z,105101.95
2018-05-03T22:27:03.680Z,105118.21
2018-05-03T22:29:31.398Z,105228.03
2018-05-03T22:31:58.975Z,105073.47
2018-05-03T22:34:26.509Z,105057.20
2018-05-03T22:36:54.066Z,105118.21
2018-05-03T22:39:22.024Z,105057.20
2018-05-03T22:41:49.551Z,105060.26
2018-05-03T22:44:17.074Z,105121.27
2018-05-03T22:46:44.627Z,105109.06
2018-05-03T22:49:12.167Z,105101.95
2018-05-03T22:51:39.842Z,105074.49
2018-05-03T22:54:07.357Z,105063.31
2018-05-03T22:56:34.886Z,105123.30
2018-05-03T22:59:02.440Z,105113.12
2018-05-03T23:01:29.964Z,105112.11
2018-05-03T23:03:57.516Z,105168.03
2018-05-03T23:06:25.040Z,105096.86
2018-05-03T23:08:52.801Z,105202.61
2018-05-03T23:11:20.357Z,105230.06
2018-05-03T23:13:47.897Z,105218.88
2018-05-03T23:16:15.461Z,105250.40
2018-05-03T23:18:43.013Z,105193.45
2018-05-03T23:21:10.543Z,105204.64
2018-05-03T23:23:38.100Z,105199.55
2018-05-03T23:26:05.813Z,105173.12
2018-05-03T23:28:33.341Z,105206.67
2018-05-03T23:31:00.872Z,105191.42
2018-05-03T23:33:28.456Z,105223.96
2018-05-03T23:35:55.974Z,105247.34
2018-05-03T23:38:23.508Z,105246.33
2018-05-03T23:40:51.174Z,105265.66
2018-05-03T23:43:18.702Z,105330.73
2018-05-03T23:45:46.227Z,105363.27
2018-05-03T23:48:13.807Z,105340.89
2018-05-03T23:50:41.342Z,105357.16
2018-05-03T23:53:08.871Z,105310.39
2018-05-03T23:55:36.425Z,105401.91
2018-05-03T23:58:03.962Z,105374.45
